Time;durP1;ratioP1;P1;durP2;ratioP2;P2;SDS_P1;SDS_P2;PMS_P1;PMS_P2;Temp;Humidity;BMP_temperature;BMP_pressure;BME280_temperature;BME280_humidity;BME280_pressure;Samples;Min_cycle;Max_cycle;Signal;HPM_P1;HPM_P2
2022/06/27 00:02:13;;;;;;;;;;;;;;;;;;5008240;27;107429;-68
2022/06/27 00:04:39;;;;;;;;;;;;;;;;;;5011103;27;122062;-68
2022/06/27 00:07:05;;;;;;;;;;;;;;;;;;5004532;28;138011;-68
2022/06/27 00:09:31;;;;;;;;;;;;;;;;;;5008116;28;123331;-69
2022/06/27 00:11:59;;;;;;;;;;;;;;;;;;5003415;28;135426;-69
2022/06/27 00:14:26;;;;;;;;;;;;;;;;;;5008595;28;135732;-68
2022/06/27 00:16:52;;;;;;;;;;;;;;;;;;5001443;28;121972;-68
2022/06/27 00:19:18;;;;;;;;;;;;;;;;;;5008531;27;137131;-68
2022/06/27 00:21:44;;;;;;;;;;;;;;;;;;5006410;28;137207;-68
2022/06/27 00:24:11;;;;;;;;;;;;;;;;;;5007996;28;123339;-68
2022/06/27 00:26:37;;;;;;;;;;;;;;;;;;5009271;27;122830;-68
2022/06/27 00:29:03;;;;;;;;;;;;;;;;;;5008897;28;122028;-68
2022/06/27 00:31:30;;;;;;;;;;;;;;;;;;5002474;27;106790;-67
2022/06/27 00:33:56;;;;;;;;;;;;;;;;;;5004932;28;115684;-68
2022/06/27 00:36:22;;;;;;;;;;;;;;;;;;4993072;28;115399;-68
2022/06/27 00:38:49;;;;;;;;;;;;;;;;;;5003772;28;129654;-68
2022/06/27 00:41:15;;;;;;;;;;;;;;;;;;4997982;28;127436;-68
2022/06/27 00:43:41;;;;;;;;;;;;;;;;;;5004581;28;105963;-68
2022/06/27 00:46:07;;;;;;;;;;;;;;;;;;5009566;28;136374;-68
2022/06/27 00:48:34;;;;;;;;;;;;;;;;;;5012323;27;110855;-68
2022/06/27 00:51:00;;;;;;;;;;;;;;;;;;4997686;27;129161;-68
2022/06/27 00:53:28;;;;;;;;;;;;;;;;;;5006090;28;118663;-68
2022/06/27 00:55:54;;;;;;;;;;;;;;;;;;5021521;27;119437;-68
2022/06/27 00:58:21;;;;;;;;;;;;;;;;;;5001648;28;133512;-68
2022/06/27 01:00:47;;;;;;;;;;;;;;;;;;5001841;28;116043;-68
2022/06/27 01:03:13;;;;;;;;;;;;;;;;;;5014746;22;115191;-64
2022/06/27 01:05:51;;;;;;;;;;;;;;;;;;4965049;28;106869;-66
2022/06/27 01:08:17;;;;;;;;;;;;;;;;;;4971571;28;130186;-63
2022/06/27 01:10:44;;;;;;;;;;;;;;;;;;4968032;28;128322;-65
2022/06/27 01:13:10;;;;;;;;;;;;;;;;;;4968157;28;125447;-63
2022/06/27 01:15:36;;;;;;;;;;;;;;;;;;4962716;28;117539;-64
2022/06/27 01:18:03;;;;;;;;;;;;;;;;;;4984449;28;108873;-65
2022/06/27 01:20:29;;;;;;;;;;;;;;;;;;4981845;28;134350;-65
2022/06/27 01:22:55;;;;;;;;;;;;;;;;;;4981943;28;117794;-66
2022/06/27 01:25:22;;;;;;;;;;;;;;;;;;4981374;28;124133;-66
2022/06/27 01:27:48;;;;;;;;;;;;;;;;;;4966052;28;128870;-65
2022/06/27 01:30:18;;;;;;;;;;;;;;;;;;4988952;28;106347;-65
2022/06/27 01:32:44;;;;;;;;;;;;;;;;;;4965364;28;136685;-66
2022/06/27 01:35:10;;;;;;;;;;;;;;;;;;4984595;28;108169;-65
2022/06/27 01:37:38;;;;;;;;;;;;;;;;;;4967985;28;107764;-66
2022/06/27 01:40:05;;;;;;;;;;;;;;;;;;4984633;28;108758;-65
2022/06/27 01:42:31;;;;;;;;;;;;;;;;;;4957929;28;105979;-65
2022/06/27 01:44:57;;;;;;;;;;;;;;;;;;4977653;28;107811;-64
2022/06/27 01:47:26;;;;;;;;;;;;;;;;;;4968279;28;136526;-66
2022/06/27 01:49:57;;;;;;;;;;;;;;;;;;4984108;28;106545;-65
2022/06/27 01:52:24;;;;;;;;;;;;;;;;;;4983637;28;108541;-65
2022/06/27 01:54:52;;;;;;;;;;;;;;;;;;4965103;28;106511;-63
2022/06/27 01:57:19;;;;;;;;;;;;;;;;;;4968623;28;106826;-64
2022/06/27 01:59:46;;;;;;;;;;;;;;;;;;4983018;28;110714;-64
2022/06/27 02:02:13;;;;;;;;;;;;;;;;;;4984173;28;106094;-66
2022/06/27 02:04:41;;;;;;;;;;;;;;;;;;4967469;28;108357;-66
2022/06/27 02:07:07;;;;;;;;;;;;;;;;;;4966611;28;132801;-64
2022/06/27 02:09:35;;;;;;;;;;;;;;;;;;4982990;28;105987;-64
2022/06/27 02:12:22;;;;;;;;;;;;;;;;;;4984215;28;108579;-64
2022/06/27 02:14:49;;;;;;;;;;;;;;;;;;4985816;28;108840;-64
2022/06/27 02:17:19;;;;;;;;;;;;;;;;;;4983953;28;108287;-64
2022/06/27 02:19:45;;;;;;;;;;;;;;;;;;4983487;28;108605;-64
2022/06/27 02:22:13;;;;;;;;;;;;;;;;;;4967775;28;106196;-64
2022/06/27 02:24:39;;;;;;;;;;;;;;;;;;4966862;28;127374;-64
2022/06/27 02:27:06;;;;;;;;;;;;;;;;;;4966707;28;137213;-64
2022/06/27 02:29:32;;;;;;;;;;;;;;;;;;4967490;28;123177;-64
2022/06/27 02:31:59;;;;;;;;;;;;;;;;;;4969030;28;106917;-64
2022/06/27 02:34:25;;;;;;;;;;;;;;;;;;4970361;28;135671;-64
2022/06/27 02:36:51;;;;;;;;;;;;;;;;;;4964975;28;124795;-65
2022/06/27 02:39:18;;;;;;;;;;;;;;;;;;4980441;28;133089;-64
2022/06/27 02:41:45;;;;;;;;;;;;;;;;;;4971790;28;106593;-64
2022/06/27 02:44:11;;;;;;;;;;;;;;;;;;4967540;28;131628;-64
2022/06/27 02:46:38;;;;;;;;;;;;;;;;;;4982191;28;134921;-64
2022/06/27 02:49:04;;;;;;;;;;;;;;;;;;4982513;28;108784;-64
2022/06/27 02:51:31;;;;;;;;;;;;;;;;;;4966123;28;106747;-65
2022/06/27 02:53:57;;;;;;;;;;;;;;;;;;4982512;28;136073;-64
2022/06/27 02:56:38;;;;;;;;;;;;;;;;;;4985475;28;107095;-64
2022/06/27 02:59:05;;;;;;;;;;;;;;;;;;4967722;28;136992;-64
2022/06/27 03:01:31;;;;;;;;;;;;;;;;;;4968164;28;116288;-64
2022/06/27 03:03:57;;;;;;;;;;;;;;;;;;4963480;28;108229;-64
2022/06/27 03:06:26;;;;;;;;;;;;;;;;;;4965425;28;108384;-64
2022/06/27 03:08:52;;;;;;;;;;;;;;;;;;4966992;28;121721;-64
2022/06/27 03:11:18;;;;;;;;;;;;;;;;;;4979957;28;138613;-64
2022/06/27 03:13:46;;;;;;;;;;;;;;;;;;4975412;28;108891;-64
2022/06/27 03:16:13;;;;;;;;;;;;;;;;;;4966292;28;122997;-64
2022/06/27 03:18:40;;;;;;;;;;;;;;;;;;4965309;28;108286;-64
2022/06/27 03:21:25;;;;;;;;;;;;;;;;;;4968291;28;106002;-64
2022/06/27 03:23:56;;;;;;;;;;;;;;;;;;4966567;28;108939;-64
2022/06/27 03:26:22;;;;;;;;;;;;;;;;;;4954799;28;107400;-64
2022/06/27 03:28:49;;;;;;;;;;;;;;;;;;4966143;28;107138;-64
2022/06/27 03:31:15;;;;;;;;;;;;;;;;;;4985328;28;109794;-64
2022/06/27 03:33:44;;;;;;;;;;;;;;;;;;4965811;28;109079;-63
2022/06/27 03:36:24;;;;;;;;;;;;;;;;;;4980008;28;106622;-64
2022/06/27 03:38:50;;;;;;;;;;;;;;;;;;4986222;28;108014;-63
2022/06/27 03:41:18;;;;;;;;;;;;;;;;;;4976898;28;107492;-63
2022/06/27 03:43:44;;;;;;;;;;;;;;;;;;4968528;28;133146;-64
2022/06/27 03:46:11;;;;;;;;;;;;;;;;;;4985720;28;108278;-64
2022/06/27 03:51:42;;;;;;;;;;;;;;;;;;4960773;28;105986;-64
2022/06/27 03:54:09;;;;;;;;;;;;;;;;;;4970549;28;111570;-63
2022/06/27 03:56:35;;;;;;;;;;;;;;;;;;4985173;28;106184;-64
2022/06/27 03:59:02;;;;;;;;;;;;;;;;;;4962993;28;108395;-64
2022/06/27 04:01:28;;;;;;;;;;;;;;;;;;4967983;28;135947;-63
2022/06/27 04:03:54;;;;;;;;;;;;;;;;;;4988256;28;107180;-64
2022/06/27 04:06:22;;;;;;;;;;;;;;;;;;4985391;28;109494;-64
2022/06/27 04:08:49;;;;;;;;;;;;;;;;;;4970660;28;106029;-64
2022/06/27 04:11:15;;;;;;;;;;;;;;;;;;4971926;28;107460;-64
2022/06/27 04:13:45;;;;;;;;;;;;;;;;;;4984514;28;108592;-64
2022/06/27 04:16:29;;;;;;;;;;;;;;;;;;4970899;28;107404;-63
2022/06/27 04:19:15;;;;;;;;;;;;;;;;;;4968832;28;108263;-63
2022/06/27 04:21:59;;;;;;;;;;;;;;;;;;4983576;28;107269;-64
2022/06/27 04:24:45;;;;;;;;;;;;;;;;;;4970130;28;105928;-64
2022/06/27 04:27:19;;;;;;;;;;;;;;;;;;4990389;28;107776;-64
2022/06/27 04:29:48;;;;;;;;;;;;;;;;;;4970979;28;106552;-64
2022/06/27 04:32:14;;;;;;;;;;;;;;;;;;4984093;28;108575;-63
2022/06/27 04:34:40;;;;;;;;;;;;;;;;;;4984340;28;139119;-63
2022/06/27 04:37:07;;;;;;;;;;;;;;;;;;4984796;28;106258;-63
2022/06/27 04:39:46;;;;;;;;;;;;;;;;;;4985839;28;107344;-63
2022/06/27 04:42:32;;;;;;;;;;;;;;;;;;4969173;28;107720;-64
2022/06/27 04:44:59;;;;;;;;;;;;;;;;;;4968522;28;113926;-64
2022/06/27 04:47:26;;;;;;;;;;;;;;;;;;4971523;28;110163;-63
2022/06/27 04:50:08;;;;;;;;;;;;;;;;;;4985063;28;105908;-64
2022/06/27 04:52:34;;;;;;;;;;;;;;;;;;4970772;28;133385;-63
2022/06/27 04:55:00;;;;;;;;;;;;;;;;;;4984573;28;124889;-63
2022/06/27 04:57:27;;;;;;;;;;;;;;;;;;4966906;28;119221;-63
2022/06/27 04:59:53;;;;;;;;;;;;;;;;;;4975273;28;108414;-64
2022/06/27 05:02:38;;;;;;;;;;;;;;;;;;4967129;28;106076;-63
2022/06/27 05:05:04;;;;;;;;;;;;;;;;;;4983571;28;113094;-64
2022/06/27 05:07:30;;;;;;;;;;;;;;;;;;4967269;28;138537;-64
2022/06/27 05:09:57;;;;;;;;;;;;;;;;;;4970954;28;127401;-63
2022/06/27 05:12:24;;;;;;;;;;;;;;;;;;4980254;28;136170;-64
2022/06/27 05:14:50;;;;;;;;;;;;;;;;;;4966506;28;129607;-64
2022/06/27 05:17:16;;;;;;;;;;;;;;;;;;4968340;28;106332;-64
2022/06/27 05:19:44;;;;;;;;;;;;;;;;;;4983794;28;108478;-63
2022/06/27 05:22:10;;;;;;;;;;;;;;;;;;4968492;28;135056;-64
2022/06/27 05:24:37;;;;;;;;;;;;;;;;;;4968006;28;117617;-64
2022/06/27 05:27:03;;;;;;;;;;;;;;;;;;4984944;28;128701;-63
2022/06/27 05:29:29;;;;;;;;;;;;;;;;;;4965917;28;108996;-63
2022/06/27 05:31:56;;;;;;;;;;;;;;;;;;4966501;28;122039;-64
2022/06/27 05:34:27;;;;;;;;;;;;;;;;;;4979205;28;108761;-64
2022/06/27 05:36:54;;;;;;;;;;;;;;;;;;4967473;28;106509;-63
2022/06/27 05:39:20;;;;;;;;;;;;;;;;;;4982943;28;135394;-65
2022/06/27 05:41:48;;;;;;;;;;;;;;;;;;4967819;28;135604;-64
2022/06/27 05:44:19;;;;;;;;;;;;;;;;;;4984590;28;107012;-63
2022/06/27 05:46:46;;;;;;;;;;;;;;;;;;4967534;28;133015;-63
2022/06/27 05:49:12;;;;;;;;;;;;;;;;;;4968802;28;106394;-63
2022/06/27 05:51:47;;;;;;;;;;;;;;;;;;4984215;28;106474;-63
2022/06/27 05:54:14;;;;;;;;;;;;;;;;;;4971946;28;120882;-64
2022/06/27 05:56:40;;;;;;;;;;;;;;;;;;4968758;28;106822;-64
2022/06/27 05:59:07;;;;;;;;;;;;;;;;;;4967862;28;107116;-64
2022/06/27 06:01:37;;;;;;;;;;;;;;;;;;4983365;28;108350;-65
2022/06/27 06:04:05;;;;;;;;;;;;;;;;;;4970374;28;106665;-64
2022/06/27 06:06:34;;;;;;;;;;;;;;;;;;4982667;28;108353;-64
2022/06/27 06:09:01;;;;;;;;;;;;;;;;;;4968407;28;135453;-64
2022/06/27 06:11:28;;;;;;;;;;;;;;;;;;4983377;28;106193;-64
2022/06/27 06:13:54;;;;;;;;;;;;;;;;;;4966036;28;135631;-64
2022/06/27 06:16:21;;;;;;;;;;;;;;;;;;4986020;28;109580;-66
2022/06/27 06:18:52;;;;;;;;;;;;;;;;;;4969198;28;135251;-64
2022/06/27 06:21:19;;;;;;;;;;;;;;;;;;4965981;28;127177;-64
2022/06/27 06:23:46;;;;;;;;;;;;;;;;;;4982951;28;115181;-64
2022/06/27 06:26:16;;;;;;;;;;;;;;;;;;4969813;28;107258;-64
2022/06/27 06:28:42;;;;;;;;;;;;;;;;;;4982741;28;110431;-64
2022/06/27 06:31:09;;;;;;;;;;;;;;;;;;4984432;28;106721;-64
2022/06/27 06:33:36;;;;;;;;;;;;;;;;;;4983274;28;107724;-64
2022/06/27 06:36:04;;;;;;;;;;;;;;;;;;4983221;28;108881;-64
2022/06/27 06:38:31;;;;;;;;;;;;;;;;;;4986849;28;109068;-65
2022/06/27 06:40:58;;;;;;;;;;;;;;;;;;4982757;28;130254;-64
2022/06/27 06:43:24;;;;;;;;;;;;;;;;;;4969238;28;106100;-64
2022/06/27 06:46:09;;;;;;;;;;;;;;;;;;4983513;28;107036;-64
2022/06/27 06:48:42;;;;;;;;;;;;;;;;;;4980026;28;108771;-64
2022/06/27 06:51:16;;;;;;;;;;;;;;;;;;4967926;28;106280;-64
2022/06/27 06:53:43;;;;;;;;;;;;;;;;;;4967109;28;136447;-64
2022/06/27 06:56:09;;;;;;;;;;;;;;;;;;4963657;28;135636;-65
2022/06/27 06:58:35;;;;;;;;;;;;;;;;;;4970897;28;110391;-69
2022/06/27 07:01:03;;;;;;;;;;;;;;;;;;4961088;28;129639;-63
2022/06/27 07:03:29;;;;;;;;;;;;;;;;;;4961862;28;108835;-63
2022/06/27 07:05:56;;;;;;;;;;;;;;;;;;4961015;28;135315;-66
2022/06/27 07:08:24;;;;;;;;;;;;;;;;;;4969650;28;134472;-64
2022/06/27 07:10:51;;;;;;;;;;;;;;;;;;4970639;28;107854;-67
2022/06/27 07:13:18;;;;;;;;;;;;;;;;;;4970246;28;135315;-63
2022/06/27 07:15:45;;;;;;;;;;;;;;;;;;4962925;28;130563;-64
2022/06/27 07:18:13;;;;;;;;;;;;;;;;;;4963490;28;123843;-63
2022/06/27 07:20:39;;;;;;;;;;;;;;;;;;4967736;28;108699;-64
2022/06/27 07:23:06;;;;;;;;;;;;;;;;;;4962766;28;120836;-63
2022/06/27 07:25:34;;;;;;;;;;;;;;;;;;4966642;28;132722;-67
2022/06/27 07:28:01;;;;;;;;;;;;;;;;;;4968237;28;135582;-64
2022/06/27 07:30:28;;;;;;;;;;;;;;;;;;4969720;28;122507;-64
2022/06/27 07:32:55;;;;;;;;;;;;;;;;;;4968712;28;133023;-64
2022/06/27 07:35:22;;;;;;;;;;;;;;;;;;4966505;28;133863;-66
2022/06/27 07:37:48;;;;;;;;;;;;;;;;;;4965619;28;122503;-64
2022/06/27 07:40:14;;;;;;;;;;;;;;;;;;4969110;28;132639;-63
2022/06/27 07:42:45;;;;;;;;;;;;;;;;;;4986192;28;131018;-63
2022/06/27 07:45:18;;;;;;;;;;;;;;;;;;4969840;28;137238;-62
2022/06/27 07:47:44;;;;;;;;;;;;;;;;;;4964932;28;130625;-63
2022/06/27 07:50:11;;;;;;;;;;;;;;;;;;4965297;28;123166;-67
2022/06/27 07:55:24;;;;;;;;;;;;;;;;;;4967583;28;138573;-63
2022/06/27 07:57:52;;;;;;;;;;;;;;;;;;4971518;28;123314;-65
2022/06/27 08:00:18;;;;;;;;;;;;;;;;;;4969123;28;108577;-63
2022/06/27 08:02:44;;;;;;;;;;;;;;;;;;4982788;28;119141;-64
2022/06/27 08:05:11;;;;;;;;;;;;;;;;;;4972954;28;125593;-64
2022/06/27 08:07:37;;;;;;;;;;;;;;;;;;4967052;28;137962;-64
2022/06/27 08:10:03;;;;;;;;;;;;;;;;;;4968941;28;122205;-64
2022/06/27 08:12:30;;;;;;;;;;;;;;;;;;4969550;28;136443;-66
2022/06/27 08:14:57;;;;;;;;;;;;;;;;;;4969487;28;106263;-64
2022/06/27 08:17:23;;;;;;;;;;;;;;;;;;4969229;28;106253;-64
2022/06/27 08:19:50;;;;;;;;;;;;;;;;;;4971134;28;107591;-64
2022/06/27 08:22:16;;;;;;;;;;;;;;;;;;4968247;28;131296;-64
2022/06/27 08:24:44;;;;;;;;;;;;;;;;;;4969069;28;116083;-63
2022/06/27 08:27:12;;;;;;;;;;;;;;;;;;4971190;28;133396;-64
2022/06/27 08:29:41;;;;;;;;;;;;;;;;;;4969429;28;108381;-64
2022/06/27 08:32:07;;;;;;;;;;;;;;;;;;4967488;28;108483;-64
2022/06/27 08:34:35;;;;;;;;;;;;;;;;;;4969638;28;111746;-64
2022/06/27 08:37:02;;;;;;;;;;;;;;;;;;4968527;28;119237;-64
2022/06/27 08:39:29;;;;;;;;;;;;;;;;;;4969264;28;135633;-64
2022/06/27 08:41:56;;;;;;;;;;;;;;;;;;4969507;28;122943;-64
2022/06/27 08:44:23;;;;;;;;;;;;;;;;;;4969420;28;121962;-64
2022/06/27 08:46:51;;;;;;;;;;;;;;;;;;4969361;28;136749;-64
2022/06/27 08:49:20;;;;;;;;;;;;;;;;;;4971541;28;106499;-64
2022/06/27 08:51:46;;;;;;;;;;;;;;;;;;4967335;28;115215;-63
2022/06/27 08:54:12;;;;;;;;;;;;;;;;;;4965094;28;117128;-64
2022/06/27 08:56:39;;;;;;;;;;;;;;;;;;4968982;28;106780;-63
2022/06/27 08:59:05;;;;;;;;;;;;;;;;;;4969117;28;137302;-63
2022/06/27 09:01:32;;;;;;;;;;;;;;;;;;4963355;28;133536;-63
2022/06/27 09:04:00;;;;;;;;;;;;;;;;;;4966663;28;117819;-63
2022/06/27 09:06:26;;;;;;;;;;;;;;;;;;4966869;28;107079;-63
2022/06/27 09:09:03;;;;;;;;;;;;;;;;;;4967938;28;138199;-62
2022/06/27 09:11:30;;;;;;;;;;;;;;;;;;4970332;28;106986;-63
2022/06/27 09:13:56;;;;;;;;;;;;;;;;;;4965716;28;141468;-64
2022/06/27 09:16:23;;;;;;;;;;;;;;;;;;4968358;28;115361;-63
2022/06/27 09:18:50;;;;;;;;;;;;;;;;;;4968271;28;130410;-64
2022/06/27 09:21:17;;;;;;;;;;;;;;;;;;4965272;28;136377;-63
2022/06/27 09:23:53;;;;;;;;;;;;;;;;;;4968400;28;106582;-63
2022/06/27 09:26:20;;;;;;;;;;;;;;;;;;4962991;28;112411;-62
2022/06/27 09:28:46;;;;;;;;;;;;;;;;;;4967496;28;125401;-62
2022/06/27 09:31:13;;;;;;;;;;;;;;;;;;4972376;28;118375;-63
2022/06/27 09:33:41;;;;;;;;;;;;;;;;;;4967567;28;136058;-62
2022/06/27 09:36:07;;;;;;;;;;;;;;;;;;4963357;28;121236;-63
2022/06/27 09:38:33;;;;;;;;;;;;;;;;;;4965523;28;135463;-62
2022/06/27 09:41:00;;;;;;;;;;;;;;;;;;4968351;28;113956;-64
2022/06/27 09:43:27;;;;;;;;;;;;;;;;;;4966795;28;126227;-64
2022/06/27 09:45:53;;;;;;;;;;;;;;;;;;4969369;28;135446;-63
2022/06/27 09:48:24;;;;;;;;;;;;;;;;;;4967715;28;134567;-63
2022/06/27 09:50:51;;;;;;;;;;;;;;;;;;4963154;28;106515;-64
2022/06/27 09:53:18;;;;;;;;;;;;;;;;;;4971286;28;136496;-63
2022/06/27 09:55:45;;;;;;;;;;;;;;;;;;4967493;28;121874;-63
2022/06/27 09:58:11;;;;;;;;;;;;;;;;;;4967427;28;135456;-63
2022/06/27 10:00:37;;;;;;;;;;;;;;;;;;4967351;28;137324;-62
2022/06/27 10:03:04;;;;;;;;;;;;;;;;;;4963278;28;119438;-62
2022/06/27 10:05:37;;;;;;;;;;;;;;;;;;4966319;28;116902;-63
2022/06/27 10:08:05;;;;;;;;;;;;;;;;;;4959244;28;107297;-63
2022/06/27 10:10:31;;;;;;;;;;;;;;;;;;4965953;28;118797;-63
2022/06/27 10:12:58;;;;;;;;;;;;;;;;;;4964143;28;136927;-63
2022/06/27 10:15:24;;;;;;;;;;;;;;;;;;4967388;28;131513;-63
2022/06/27 10:17:50;;;;;;;;;;;;;;;;;;4958821;28;110787;-63
2022/06/27 10:20:19;;;;;;;;;;;;;;;;;;4965418;28;116781;-63
2022/06/27 10:22:45;;;;;;;;;;;;;;;;;;4967462;28;115573;-67
2022/06/27 10:25:11;;;;;;;;;;;;;;;;;;4983420;28;136239;-64
2022/06/27 10:27:38;;;;;;;;;;;;;;;;;;4960450;28;106636;-64
2022/06/27 10:30:04;;;;;;;;;;;;;;;;;;4963227;28;123106;-63
2022/06/27 10:32:30;;;;;;;;;;;;;;;;;;4965945;28;132456;-64
2022/06/27 10:35:00;;;;;;;;;;;;;;;;;;4958619;28;134996;-64
2022/06/27 10:37:26;;;;;;;;;;;;;;;;;;4969154;28;112245;-62
2022/06/27 10:39:52;;;;;;;;;;;;;;;;;;4959243;28;127346;-63
2022/06/27 10:42:28;;;;;;;;;;;;;;;;;;4961673;28;120173;-63
2022/06/27 10:44:54;;;;;;;;;;;;;;;;;;4958490;28;128608;-63
2022/06/27 10:47:21;;;;;;;;;;;;;;;;;;4959733;28;138160;-65
2022/06/27 10:49:47;;;;;;;;;;;;;;;;;;4961265;28;107222;-63
2022/06/27 10:52:13;;;;;;;;;;;;;;;;;;4960632;28;116558;-63
2022/06/27 10:54:40;;;;;;;;;;;;;;;;;;4962042;28;134402;-63
2022/06/27 10:57:06;;;;;;;;;;;;;;;;;;4968109;28;106276;-63
2022/06/27 10:59:32;;;;;;;;;;;;;;;;;;4974629;28;135100;-63
2022/06/27 11:02:00;;;;;;;;;;;;;;;;;;4961314;28;120023;-65
2022/06/27 11:04:27;;;;;;;;;;;;;;;;;;4958837;28;134142;-64
2022/06/27 11:06:55;;;;;;;;;;;;;;;;;;4959951;28;122028;-64
2022/06/27 11:09:22;;;;;;;;;;;;;;;;;;4964350;28;115895;-63
2022/06/27 11:11:49;;;;;;;;;;;;;;;;;;4963879;28;136558;-62
2022/06/27 11:14:15;;;;;;;;;;;;;;;;;;4965959;28;130096;-66
2022/06/27 11:16:41;;;;;;;;;;;;;;;;;;4959127;28;124282;-63
2022/06/27 11:20:04;;;;;;;;;;;;;;;;;;4967491;28;137330;-63
2022/06/27 11:21:54;;;;;;;;;;;;;;;;;;4954342;28;125121;-63
2022/06/27 11:24:20;;;;;;;;;;;;;;;;;;4967633;28;106531;-63
2022/06/27 11:26:47;;;;;;;;;;;;;;;;;;4966646;28;132834;-63
2022/06/27 11:31:58;;;;;;;;;;;;;;;;;;4967057;28;136532;-63
2022/06/27 11:34:25;;;;;;;;;;;;;;;;;;4965131;28;108142;-62
2022/06/27 11:36:52;;;;;;;;;;;;;;;;;;4964559;28;115005;-66
2022/06/27 11:39:18;;;;;;;;;;;;;;;;;;4968009;28;120937;-64
2022/06/27 11:41:45;;;;;;;;;;;;;;;;;;4969720;28;134784;-66
2022/06/27 11:44:12;;;;;;;;;;;;;;;;;;4961756;28;132480;-63
2022/06/27 11:46:49;;;;;;;;;;;;;;;;;;4962600;28;138179;-64
2022/06/27 11:49:16;;;;;;;;;;;;;;;;;;4966740;28;120553;-64
2022/06/27 11:51:42;;;;;;;;;;;;;;;;;;4969342;28;132595;-64
2022/06/27 11:54:09;;;;;;;;;;;;;;;;;;4971163;28;116577;-64
2022/06/27 11:56:35;;;;;;;;;;;;;;;;;;4969692;28;122038;-64
2022/06/27 11:59:02;;;;;;;;;;;;;;;;;;4969533;28;136713;-64
2022/06/27 12:01:28;;;;;;;;;;;;;;;;;;4965590;28;109591;-64
2022/06/27 12:03:54;;;;;;;;;;;;;;;;;;4971643;28;118409;-64
2022/06/27 12:06:20;;;;;;;;;;;;;;;;;;4969929;28;136854;-64
2022/06/27 12:08:47;;;;;;;;;;;;;;;;;;4952844;28;106368;-64
2022/06/27 12:11:26;;;;;;;;;;;;;;;;;;4969519;28;118859;-63
2022/06/27 12:13:52;;;;;;;;;;;;;;;;;;4979172;28;118860;-62
2022/06/27 12:16:18;;;;;;;;;;;;;;;;;;4969265;28;122053;-62
2022/06/27 12:18:46;;;;;;;;;;;;;;;;;;4966599;28;134477;-64
2022/06/27 12:21:12;;;;;;;;;;;;;;;;;;4968702;28;138250;-64
2022/06/27 12:23:38;;;;;;;;;;;;;;;;;;4969601;28;122755;-63
2022/06/27 12:26:05;;;;;;;;;;;;;;;;;;4976328;28;112102;-63
2022/06/27 12:28:31;;;;;;;;;;;;;;;;;;4969354;28;122873;-63
2022/06/27 12:30:57;;;;;;;;;;;;;;;;;;4971031;28;118111;-64
2022/06/27 12:33:24;;;;;;;;;;;;;;;;;;4968618;28;136350;-63
2022/06/27 12:35:50;;;;;;;;;;;;;;;;;;4969921;28;106696;-63
2022/06/27 12:38:16;;;;;;;;;;;;;;;;;;4973906;28;130379;-64
2022/06/27 12:40:43;;;;;;;;;;;;;;;;;;4968400;28;136890;-63
2022/06/27 12:43:09;;;;;;;;;;;;;;;;;;4971284;28;106457;-63
2022/06/27 12:45:36;;;;;;;;;;;;;;;;;;4969535;28;134653;-65
2022/06/27 12:48:02;;;;;;;;;;;;;;;;;;4972367;28;137001;-64
2022/06/27 12:50:28;;;;;;;;;;;;;;;;;;4966631;28;128334;-64
2022/06/27 12:52:55;;;;;;;;;;;;;;;;;;4968748;28;123741;-64
2022/06/27 12:55:21;;;;;;;;;;;;;;;;;;4969830;28;123979;-65
2022/06/27 12:57:47;;;;;;;;;;;;;;;;;;4968868;28;133614;-64
2022/06/27 13:00:14;;;;;;;;;;;;;;;;;;4969420;28;118930;-64
2022/06/27 13:02:40;;;;;;;;;;;;;;;;;;4968695;28;108410;-64
2022/06/27 13:05:07;;;;;;;;;;;;;;;;;;4966444;28;135985;-64
2022/06/27 13:07:34;;;;;;;;;;;;;;;;;;4973248;28;122771;-64
2022/06/27 13:10:00;;;;;;;;;;;;;;;;;;4967250;28;136519;-65
2022/06/27 13:12:26;;;;;;;;;;;;;;;;;;4968405;28;129953;-64
2022/06/27 13:14:53;;;;;;;;;;;;;;;;;;4971997;28;109691;-63
2022/06/27 13:17:26;;;;;;;;;;;;;;;;;;4960183;28;114461;-64
2022/06/27 13:19:52;;;;;;;;;;;;;;;;;;4976092;28;137229;-65
2022/06/27 13:22:18;;;;;;;;;;;;;;;;;;4967586;28;123278;-65
2022/06/27 13:24:45;;;;;;;;;;;;;;;;;;4973694;28;108760;-64
2022/06/27 13:27:11;;;;;;;;;;;;;;;;;;4960889;28;137753;-65
2022/06/27 13:29:37;;;;;;;;;;;;;;;;;;4964942;28;119790;-65
2022/06/27 13:32:04;;;;;;;;;;;;;;;;;;4965222;28;133971;-65
2022/06/27 13:34:30;;;;;;;;;;;;;;;;;;4961859;28;118840;-67
2022/06/27 13:37:15;;;;;;;;;;;;;;;;;;4961906;28;137545;-64
2022/06/27 13:39:41;;;;;;;;;;;;;;;;;;4955356;28;137228;-63
2022/06/27 13:42:07;;;;;;;;;;;;;;;;;;4994833;28;120478;-63
2022/06/27 13:44:34;;;;;;;;;;;;;;;;;;4968805;28;128392;-63
2022/06/27 13:47:00;;;;;;;;;;;;;;;;;;4966158;28;135440;-63
2022/06/27 13:49:27;;;;;;;;;;;;;;;;;;4968227;28;107324;-63
2022/06/27 13:51:53;;;;;;;;;;;;;;;;;;4975097;28;131457;-63
2022/06/27 13:54:19;;;;;;;;;;;;;;;;;;4971644;28;115833;-63
2022/06/27 13:56:45;;;;;;;;;;;;;;;;;;4966600;28;138089;-63
2022/06/27 13:59:13;;;;;;;;;;;;;;;;;;4966366;28;108127;-63
2022/06/27 14:01:40;;;;;;;;;;;;;;;;;;4969119;28;106314;-63
2022/06/27 14:04:06;;;;;;;;;;;;;;;;;;4965581;28;122530;-64
2022/06/27 14:09:18;;;;;;;;;;;;;;;;;;4967766;28;108839;-64
2022/06/27 14:11:44;;;;;;;;;;;;;;;;;;4966880;28;136550;-63
2022/06/27 14:14:10;;;;;;;;;;;;;;;;;;4970478;28;136976;-62
2022/06/27 14:16:36;;;;;;;;;;;;;;;;;;4967567;28;138112;-63
2022/06/27 14:19:03;;;;;;;;;;;;;;;;;;4965106;28;125391;-62
2022/06/27 14:21:30;;;;;;;;;;;;;;;;;;4966062;28;111463;-62
2022/06/27 14:23:56;;;;;;;;;;;;;;;;;;4963963;28;121730;-62
2022/06/27 14:26:27;;;;;;;;;;;;;;;;;;4967541;28;137814;-63
2022/06/27 14:28:53;;;;;;;;;;;;;;;;;;4963446;28;123208;-63
2022/06/27 14:31:20;;;;;;;;;;;;;;;;;;4966115;28;135843;-61
2022/06/27 14:33:47;;;;;;;;;;;;;;;;;;4966663;28;106690;-62
2022/06/27 14:36:13;;;;;;;;;;;;;;;;;;4964870;28;106167;-64
2022/06/27 14:38:39;;;;;;;;;;;;;;;;;;4967510;28;117749;-65
2022/06/27 14:41:06;;;;;;;;;;;;;;;;;;4966388;28;121995;-62
2022/06/27 14:43:32;;;;;;;;;;;;;;;;;;4965441;28;136013;-62
2022/06/27 14:45:58;;;;;;;;;;;;;;;;;;4965978;28;137156;-64
2022/06/27 14:48:25;;;;;;;;;;;;;;;;;;4966815;28;123246;-62
2022/06/27 14:50:51;;;;;;;;;;;;;;;;;;4966322;28;127534;-66
2022/06/27 14:53:17;;;;;;;;;;;;;;;;;;4967157;28;118986;-62
2022/06/27 14:55:44;;;;;;;;;;;;;;;;;;4962110;28;117071;-61
2022/06/27 14:58:10;;;;;;;;;;;;;;;;;;4967970;28;133614;-65
2022/06/27 15:00:36;;;;;;;;;;;;;;;;;;4965672;28;113106;-63
2022/06/27 15:03:03;;;;;;;;;;;;;;;;;;4980854;28;107279;-63
2022/06/27 15:05:29;;;;;;;;;;;;;;;;;;4967370;28;118441;-63
2022/06/27 15:07:55;;;;;;;;;;;;;;;;;;4961528;28;123455;-63
2022/06/27 15:10:22;;;;;;;;;;;;;;;;;;4967331;28;135363;-64
2022/06/27 15:12:48;;;;;;;;;;;;;;;;;;4960040;28;124091;-63
2022/06/27 15:15:15;;;;;;;;;;;;;;;;;;4964917;28;122206;-63
2022/06/27 15:17:41;;;;;;;;;;;;;;;;;;4962464;28;134734;-63
2022/06/27 15:20:08;;;;;;;;;;;;;;;;;;4965060;28;107483;-63
2022/06/27 15:22:34;;;;;;;;;;;;;;;;;;4963193;28;117345;-63
2022/06/27 15:25:01;;;;;;;;;;;;;;;;;;4966723;28;136887;-64
2022/06/27 15:27:27;;;;;;;;;;;;;;;;;;4968647;28;125310;-64
2022/06/27 15:30:10;;;;;;;;;;;;;;;;;;4969627;28;131130;-63
2022/06/27 15:32:36;;;;;;;;;;;;;;;;;;4967406;28;123431;-63
2022/06/27 15:35:03;;;;;;;;;;;;;;;;;;4967930;28;122714;-63
2022/06/27 15:37:29;;;;;;;;;;;;;;;;;;4970318;28;129825;-64
2022/06/27 15:39:56;;;;;;;;;;;;;;;;;;4966916;28;136669;-64
2022/06/27 15:42:22;;;;;;;;;;;;;;;;;;4968885;28;135222;-62
2022/06/27 15:44:48;;;;;;;;;;;;;;;;;;4967359;28;109948;-64
2022/06/27 15:47:15;;;;;;;;;;;;;;;;;;4972067;28;119609;-63
2022/06/27 15:49:41;;;;;;;;;;;;;;;;;;4968359;28;132428;-62
2022/06/27 15:52:07;;;;;;;;;;;;;;;;;;4969046;28;123095;-62
2022/06/27 15:54:33;;;;;;;;;;;;;;;;;;4962080;28;106636;-62
2022/06/27 15:57:00;;;;;;;;;;;;;;;;;;4971042;28;128532;-62
2022/06/27 15:59:26;;;;;;;;;;;;;;;;;;4968157;28;136811;-61
2022/06/27 16:01:52;;;;;;;;;;;;;;;;;;4968861;28;123437;-62
2022/06/27 16:04:19;;;;;;;;;;;;;;;;;;4968884;28;137551;-62
2022/06/27 16:06:45;;;;;;;;;;;;;;;;;;4963979;28;120315;-62
2022/06/27 16:09:12;;;;;;;;;;;;;;;;;;4983475;28;133013;-62
2022/06/27 16:11:38;;;;;;;;;;;;;;;;;;4968633;28;134973;-63
2022/06/27 16:14:04;;;;;;;;;;;;;;;;;;4966962;28;119032;-62
2022/06/27 16:16:30;;;;;;;;;;;;;;;;;;4965979;28;127904;-64
2022/06/27 16:18:57;;;;;;;;;;;;;;;;;;4968675;28;125091;-62
2022/06/27 16:21:24;;;;;;;;;;;;;;;;;;4968303;28;123736;-66
2022/06/27 16:23:50;;;;;;;;;;;;;;;;;;4986451;28;118769;-67
2022/06/27 16:26:16;;;;;;;;;;;;;;;;;;4966516;28;106278;-63
2022/06/27 16:28:43;;;;;;;;;;;;;;;;;;4966621;28;124999;-64
2022/06/27 16:33:54;;;;;;;;;;;;;;;;;;4965946;28;110447;-63
2022/06/27 16:36:20;;;;;;;;;;;;;;;;;;4958967;28;137272;-63
2022/06/27 16:38:46;;;;;;;;;;;;;;;;;;4966956;28;137821;-63
2022/06/27 16:41:12;;;;;;;;;;;;;;;;;;4970149;28;122908;-63
2022/06/27 16:43:39;;;;;;;;;;;;;;;;;;4967417;28;131560;-63
2022/06/27 16:46:05;;;;;;;;;;;;;;;;;;4968837;28;124026;-67